Schieren, Luxembourg
Current Conditions -  °F | °C
As of 10:50 AM on Thursday 23 Oct 2014 (Local Time) from ELLX Reporting Station
Broken Clouds Broken Clouds  
Wind Chill: 43°   Ceiling: 3600
Heat Index: 46°   Visibility: 5mi
Dew Point: 43°   Wind: 7mph
Humidity: 87%   Direction: 240°WSW
Pressure: 30.27"   Gusts: NA
Location:  49.83°N, 6.1°E
Report Text: ELLX 230850Z 24006KT 220V300 8000 FEW009 BKN036 BKN049 08/06 Q1025 NOSIG
Loading
Personal Weather Stations






























Interactive Weather Map
Tropical Storm Tracking
New forecast layout! Learn more

10-Day Weather Forecast

Advertisements
Track Severe Weather on mobile